Time;durP1;ratioP1;P1;durP2;ratioP2;P2;SDS_P1;SDS_P2;PMS_P1;PMS_P2;Temp;Humidity;BMP_temperature;BMP_pressure;BME280_temperature;BME280_humidity;BME280_pressure;Samples;Min_cycle;Max_cycle;Signal;HPM_P1;HPM_P2
2022/11/30 00:02:18;;;;;;;44.20;28.17;;;;;;;2.20;100.00;99855.56;6274860;22;20218;-82
2022/11/30 00:04:50;;;;;;;43.50;28.20;;;;;;;2.07;100.00;99858.69;6301519;22;20204;-82
2022/11/30 00:07:19;;;;;;;42.07;26.73;;;;;;;2.13;100.00;99852.75;6249939;22;20247;-82
2022/11/30 00:09:51;;;;;;;42.60;28.37;;;;;;;2.07;100.00;99856.03;6299423;22;20226;-82
2022/11/30 00:12:19;;;;;;;42.13;27.30;;;;;;;2.02;100.00;99855.69;6249612;22;20211;-82
2022/11/30 00:14:47;;;;;;;42.10;27.60;;;;;;;2.08;100.00;99876.19;6235638;23;20205;-82
2022/11/30 00:17:19;;;;;;;44.27;27.70;;;;;;;2.18;100.00;99871.63;6245248;23;20284;-82
2022/11/30 00:19:51;;;;;;;46.33;29.03;;;;;;;2.17;100.00;99866.47;6190137;23;20205;-82
2022/11/30 00:22:25;;;;;;;44.53;27.53;;;;;;;2.22;100.00;99877.41;6200261;23;20198;-82
2022/11/30 00:24:58;;;;;;;41.40;27.07;;;;;;;2.15;100.00;99885.13;6272578;23;20181;-82
2022/11/30 00:27:33;;;;;;;45.83;28.40;;;;;;;2.15;100.00;99868.44;6224194;23;20191;-83
2022/11/30 00:30:02;;;;;;;43.70;28.57;;;;;;;2.19;100.00;99883.03;6246895;23;20188;-82
2022/11/30 00:32:35;;;;;;;46.60;28.67;;;;;;;2.06;100.00;99877.31;6247565;23;20153;-82
2022/11/30 00:35:03;;;;;;;44.60;27.63;;;;;;;2.10;100.00;99879.50;6245744;23;20160;-82
2022/11/30 00:37:33;;;;;;;47.47;29.40;;;;;;;2.04;100.00;99874.88;6220356;23;20169;-82
2022/11/30 00:40:01;;;;;;;45.83;29.20;;;;;;;2.04;100.00;99881.97;6245187;23;20187;-82
2022/11/30 00:42:29;;;;;;;48.60;30.00;;;;;;;1.94;100.00;99881.25;6244988;23;20233;-82
2022/11/30 00:44:57;;;;;;;43.40;27.60;;;;;;;1.96;100.00;99898.59;6221618;23;20157;-82
2022/11/30 00:47:37;;;;;;;46.77;28.17;;;;;;;1.93;100.00;99883.06;6222884;23;20145;-82
2022/11/30 00:50:06;;;;;;;45.30;28.20;;;;;;;1.95;100.00;99883.75;6245768;23;20164;-81
2022/11/30 00:52:34;;;;;;;46.70;28.87;;;;;;;1.93;100.00;99892.78;6220345;23;20165;-82
2022/11/30 00:55:06;;;;;;;44.93;28.50;;;;;;;1.90;100.00;99896.59;6197449;23;20161;-82
2022/11/30 00:57:36;;;;;;;43.70;28.57;;;;;;;1.88;100.00;99895.91;6220598;23;20165;-82
2022/11/30 01:00:12;;;;;;;46.10;29.63;;;;;;;1.91;100.00;99900.06;6245909;23;20160;-82
2022/11/30 01:02:44;;;;;;;46.30;28.43;;;;;;;1.94;100.00;99890.00;6244774;23;20230;-82
2022/11/30 01:05:12;;;;;;;45.97;29.37;;;;;;;1.84;100.00;99899.03;6219845;23;20157;-82
2022/11/30 01:07:46;;;;;;;46.87;29.30;;;;;;;1.92;100.00;99901.72;6219527;23;20187;-82
2022/11/30 01:10:15;;;;;;;46.03;28.60;;;;;;;1.91;100.00;99900.91;6244462;23;20168;-82
2022/11/30 01:12:47;;;;;;;49.30;30.43;;;;;;;1.87;100.00;99894.25;6221422;23;20260;-82
2022/11/30 01:15:25;;;;;;;50.10;31.30;;;;;;;1.84;100.00;99880.53;6277914;22;20190;-82
2022/11/30 01:17:54;;;;;;;46.87;29.57;;;;;;;1.73;100.00;99873.69;6274170;22;20159;-82
2022/11/30 01:20:24;;;;;;;46.13;29.33;;;;;;;1.77;100.00;99883.78;6277263;22;20165;-82
2022/11/30 01:23:00;;;;;;;46.73;28.43;;;;;;;1.85;100.00;99888.31;6301100;22;20152;-83
2022/11/30 01:25:34;;;;;;;45.80;29.47;;;;;;;1.85;100.00;99900.69;6302523;22;20182;-83
2022/11/30 01:28:10;;;;;;;47.43;30.43;;;;;;;1.83;100.00;99897.38;6243157;22;20207;-83
2022/11/30 01:31:19;;;;;;;48.33;29.63;;;;;;;2.00;100.00;99914.97;6247960;22;20172;-83
2022/11/30 01:34:02;;;;;;;48.20;29.50;;;;;;;1.92;100.00;99902.53;6228651;22;20172;-82
2022/11/30 01:36:37;;;;;;;48.60;30.97;;;;;;;1.93;100.00;99906.84;6246322;23;20218;-82
2022/11/30 01:39:10;;;;;;;48.90;31.30;;;;;;;1.89;100.00;99896.75;6257845;22;20204;-82
2022/11/30 01:41:42;;;;;;;50.37;32.20;;;;;;;1.99;100.00;99908.03;6247732;22;20149;-82
2022/11/30 01:44:55;;;;;;;52.63;32.30;;;;;;;1.94;100.00;99905.03;6241082;22;20196;-82
2022/11/30 01:47:52;;;;;;;47.70;30.63;;;;;;;1.94;100.00;99903.22;6248040;23;20181;-82
2022/11/30 01:50:34;;;;;;;49.80;31.97;;;;;;;1.89;100.00;99894.09;6246993;23;20176;-83
2022/11/30 01:53:04;;;;;;;51.90;32.10;;;;;;;1.89;100.00;99881.72;6247927;23;20161;-82
2022/11/30 01:55:41;;;;;;;51.23;31.67;;;;;;;1.81;100.00;99883.50;6239288;23;20145;-81
2022/11/30 01:58:15;;;;;;;50.30;32.00;;;;;;;1.82;100.00;99878.03;6237553;23;20181;-81
2022/11/30 02:00:46;;;;;;;47.23;30.93;;;;;;;1.89;100.00;99888.81;6212969;23;20169;-81
2022/11/30 02:03:33;;;;;;;49.80;31.77;;;;;;;1.90;100.00;99887.84;6262066;23;20172;-81
2022/11/30 02:06:00;;;;;;;46.93;30.97;;;;;;;1.94;100.00;99902.38;6263306;22;20161;-81
2022/11/30 02:08:27;;;;;;;52.50;32.63;;;;;;;1.86;100.00;99884.69;6238319;23;20185;-80
2022/11/30 02:10:58;;;;;;;49.67;32.40;;;;;;;1.88;100.00;99909.13;6238027;23;20192;-81
2022/11/30 02:13:25;;;;;;;49.33;31.73;;;;;;;1.82;100.00;99896.53;6237492;23;20157;-82
2022/11/30 02:16:21;;;;;;;52.90;34.03;;;;;;;1.71;100.00;99897.66;6236771;23;20177;-81
2022/11/30 02:28:40;;;;;;;52.60;32.60;;;;;;;1.66;100.00;99907.84;6303648;22;20592;-80
2022/11/30 02:31:10;;;;;;;51.20;32.57;;;;;;;1.64;100.00;99901.06;6310017;22;20249;-79
2022/11/30 02:33:38;;;;;;;49.97;32.17;;;;;;;1.51;100.00;99905.94;6283402;22;20584;-79
2022/11/30 02:40:09;;;;;;;49.50;32.07;;;;;;;1.40;100.00;99895.63;6316397;22;20255;-82
2022/11/30 02:42:36;;;;;;;51.37;33.00;;;;;;;1.48;100.00;99896.53;6254613;22;20225;-81
2022/11/30 02:45:06;;;;;;;48.23;31.83;;;;;;;1.58;100.00;99905.16;6252723;22;20203;-82
2022/11/30 02:51:37;;;;;;;51.30;32.33;;;;;;;1.34;100.00;99891.81;6294096;22;20233;-82
2022/11/30 02:54:05;;;;;;;48.47;31.33;;;;;;;1.37;100.00;99907.31;6279668;22;20218;-81
2022/11/30 02:56:38;;;;;;;51.43;31.77;;;;;;;1.23;100.00;99899.94;6310667;22;20186;-82
2022/11/30 02:59:06;;;;;;;52.73;32.90;;;;;;;1.26;100.00;99905.75;6190808;23;20211;-82
2022/11/30 03:01:38;;;;;;;48.17;30.57;;;;;;;1.13;100.00;99907.13;6279825;22;20207;-82
2022/11/30 03:04:06;;;;;;;48.40;30.47;;;;;;;1.19;100.00;99906.53;6257189;22;20195;-81
2022/11/30 03:06:33;;;;;;;50.10;31.57;;;;;;;0.95;100.00;99890.47;6310967;22;20184;-84
2022/11/30 03:09:01;;;;;;;48.63;31.10;;;;;;;1.10;100.00;99915.34;6284454;22;20253;-82
2022/11/30 03:12:09;;;;;;;48.07;31.07;;;;;;;1.12;100.00;99903.66;6290947;22;20156;-83
2022/11/30 03:52:35;;;;;;;48.30;31.30;;;;;;;1.59;100.00;99930.56;6281570;22;20222;-81
2022/11/30 03:55:02;;;;;;;49.37;31.17;;;;;;;1.59;100.00;99930.56;6209548;23;20205;-81
2022/11/30 03:57:30;;;;;;;53.57;32.27;;;;;;;1.59;100.00;99922.66;6235640;23;20204;-81
2022/11/30 03:59:57;;;;;;;47.30;31.43;;;;;;;1.66;100.00;99936.06;6211169;23;20208;-81
2022/11/30 04:02:24;;;;;;;49.57;32.63;;;;;;;1.61;100.00;99925.97;6261252;23;20208;-81
2022/11/30 04:04:51;;;;;;;50.63;32.53;;;;;;;1.73;100.00;99937.09;6235985;23;20200;-81
2022/11/30 04:07:18;;;;;;;53.00;32.80;;;;;;;1.68;100.00;99934.94;6235792;23;20223;-81
2022/11/30 04:09:46;;;;;;;53.37;33.17;;;;;;;1.63;100.00;99923.19;6185947;23;20669;-81
2022/11/30 04:12:14;;;;;;;49.00;30.83;;;;;;;1.81;100.00;99942.47;6209973;23;20209;-81
2022/11/30 04:14:41;;;;;;;46.73;29.37;;;;;;;1.76;100.00;99926.25;6236188;23;20220;-81
2022/11/30 04:17:08;;;;;;;46.23;29.83;;;;;;;1.77;100.00;99935.84;6198732;23;20207;-81
2022/11/30 05:56:27;;;;;;;55.83;31.90;;;;;;;1.16;100.00;99986.00;6292854;22;20207;-81
2022/11/30 06:39:56;;;;;;;56.60;32.77;;;;;;;1.35;100.00;100008.78;6251891;22;20707;-80
2022/11/30 06:42:33;;;;;;;54.90;33.13;;;;;;;1.40;100.00;100012.59;6248517;23;20207;-80
2022/11/30 06:44:59;;;;;;;56.00;32.93;;;;;;;1.41;100.00;100022.19;6229174;23;20201;-82
2022/11/30 06:47:26;;;;;;;57.80;34.13;;;;;;;1.62;100.00;100017.44;6264524;23;20195;-82
2022/11/30 08:20:34;;;;;;;50.93;31.37;;;;;;;3.38;100.00;100040.59;6275581;22;20210;-82
2022/11/30 08:23:01;;;;;;;49.07;30.97;;;;;;;3.51;100.00;100040.91;6237070;23;20201;-83
2022/11/30 08:25:30;;;;;;;50.87;32.33;;;;;;;3.63;100.00;100049.38;6266377;23;20208;-83
2022/11/30 08:27:57;;;;;;;50.40;32.20;;;;;;;3.77;100.00;100060.16;6241272;23;20204;-82
2022/11/30 08:30:25;;;;;;;50.37;31.77;;;;;;;3.86;100.00;100050.38;6265225;22;20224;-82
2022/11/30 08:32:58;;;;;;;48.70;31.57;;;;;;;3.84;100.00;100047.06;6219574;23;20197;-83
2022/11/30 08:35:26;;;;;;;52.30;32.53;;;;;;;3.88;100.00;100054.50;6242766;23;20546;-83
2022/11/30 08:37:54;;;;;;;50.90;31.97;;;;;;;3.92;100.00;100039.94;6269401;23;20212;-84
2022/11/30 08:40:22;;;;;;;49.73;31.60;;;;;;;3.99;100.00;100045.41;6240021;23;20205;-83
2022/11/30 08:42:50;;;;;;;46.37;31.67;;;;;;;4.20;100.00;100050.19;6189293;23;20187;-83
2022/11/30 08:45:18;;;;;;;48.83;31.57;;;;;;;4.07;100.00;100040.09;6216655;23;20582;-83
2022/11/30 08:47:49;;;;;;;49.83;32.03;;;;;;;4.14;100.00;100038.44;6269154;23;20204;-83
2022/11/30 08:50:16;;;;;;;51.27;31.97;;;;;;;4.16;100.00;100046.19;6210047;23;20269;-82
2022/11/30 08:52:46;;;;;;;49.47;31.93;;;;;;;4.21;100.00;100065.91;6210815;23;20197;-83
2022/11/30 08:55:13;;;;;;;52.77;32.87;;;;;;;4.18;100.00;100063.63;6241453;23;20263;-82
2022/11/30 08:57:43;;;;;;;48.83;31.53;;;;;;;4.18;100.00;100071.56;6215906;23;20224;-83
2022/11/30 09:00:10;;;;;;;51.60;32.10;;;;;;;4.09;100.00;100069.91;6239238;23;20213;-82
2022/11/30 09:02:38;;;;;;;50.13;32.17;;;;;;;4.03;100.00;100070.59;6217387;23;20200;-82
2022/11/30 09:05:13;;;;;;;49.70;32.27;;;;;;;3.97;100.00;100071.25;6247396;23;20201;-84
2022/11/30 09:07:45;;;;;;;51.57;33.47;;;;;;;4.12;100.00;100074.88;6247600;23;20185;-83
2022/11/30 09:10:14;;;;;;;51.53;33.27;;;;;;;4.12;100.00;100071.41;6269037;23;20219;-82
2022/11/30 09:12:42;;;;;;;49.83;32.60;;;;;;;4.14;100.00;100070.25;6192170;23;20209;-83
2022/11/30 09:15:09;;;;;;;50.37;32.40;;;;;;;4.28;100.00;100066.09;6191390;23;20208;-82
2022/11/30 09:17:38;;;;;;;48.77;31.97;;;;;;;4.48;100.00;100077.16;6265984;23;20552;-83
2022/11/30 09:20:06;;;;;;;46.63;31.30;;;;;;;4.52;100.00;100068.69;6230521;22;20208;-82
2022/11/30 09:22:34;;;;;;;46.77;32.13;;;;;;;4.73;100.00;100076.91;6272826;22;20227;-82
2022/11/30 09:25:03;;;;;;;45.37;32.20;;;;;;;4.86;100.00;100079.00;6264394;22;20230;-82
2022/11/30 09:27:31;;;;;;;46.03;31.73;;;;;;;4.99;100.00;100068.69;6311448;22;20234;-83
2022/11/30 09:30:01;;;;;;;46.03;31.97;;;;;;;5.04;100.00;100065.50;6298635;22;20204;-82
2022/11/30 09:32:29;;;;;;;47.47;31.37;;;;;;;5.04;100.00;100063.66;6294422;22;20275;-82
2022/11/30 09:35:01;;;;;;;45.23;31.40;;;;;;;5.13;100.00;100061.81;6298806;22;20200;-83
2022/11/30 09:37:32;;;;;;;50.20;33.57;;;;;;;5.17;100.00;100052.50;6299754;22;20672;-83
2022/11/30 09:40:00;;;;;;;46.37;32.40;;;;;;;5.24;100.00;100053.44;6300773;22;20212;-83
2022/11/30 09:42:38;;;;;;;45.47;31.53;;;;;;;5.34;100.00;100062.00;6299066;22;20218;-82
2022/11/30 09:45:18;;;;;;;44.40;31.33;;;;;;;5.44;100.00;100051.16;6276787;22;20186;-82
2022/11/30 09:48:08;;;;;;;45.70;31.70;;;;;;;5.41;100.00;100047.03;6301844;22;20151;-83
2022/11/30 09:50:42;;;;;;;45.53;30.63;;;;;;;5.48;100.00;100039.16;6301573;22;20232;-82
2022/11/30 09:53:26;;;;;;;44.47;30.43;;;;;;;5.47;100.00;100037.50;6297848;22;20151;-82
